Time;durP1;ratioP1;P1;durP2;ratioP2;P2;SDS_P1;SDS_P2;PMS_P1;PMS_P2;Temp;Humidity;BMP_temperature;BMP_pressure;BME280_temperature;BME280_humidity;BME280_pressure;Samples;Min_cycle;Max_cycle;Signal;HPM_P1;HPM_P2
2023/09/23 00:00:15;;;;;;;1.45;0.60;;;15.50;70.70;;;;;;5069487;28;20031;-62
2023/09/23 00:02:44;;;;;;;0.60;0.50;;;15.50;70.70;;;;;;5060512;28;20514;-62
2023/09/23 00:05:11;;;;;;;0.90;0.68;;;15.50;70.70;;;;;;5073574;28;20433;-62
2023/09/23 00:07:39;;;;;;;0.60;0.60;;;15.50;70.90;;;;;;5065634;28;20032;-61
2023/09/23 00:10:08;;;;;;;2.72;0.80;;;15.40;71.00;;;;;;5059155;28;20028;-61
2023/09/23 00:12:38;;;;;;;2.00;0.70;;;15.40;71.20;;;;;;5065317;28;20053;-61
2023/09/23 00:15:07;;;;;;;2.00;0.70;;;15.40;71.20;;;;;;5061612;28;20028;-62
2023/09/23 00:17:37;;;;;;;2.05;0.73;;;15.40;71.10;;;;;;5060000;28;20085;-62
2023/09/23 00:20:27;;;;;;;1.80;0.60;;;15.40;71.00;;;;;;5064538;28;20036;-61
2023/09/23 00:22:54;;;;;;;1.42;0.77;;;15.30;71.10;;;;;;5066072;28;20403;-61
2023/09/23 00:25:23;;;;;;;0.75;0.50;;;15.30;71.30;;;;;;5067651;28;20036;-62
2023/09/23 00:27:49;;;;;;;2.58;0.65;;;15.30;71.50;;;;;;5061267;28;20077;-62
2023/09/23 00:30:15;;;;;;;2.88;0.60;;;15.30;71.40;;;;;;5061261;28;20025;-61
2023/09/23 00:32:41;;;;;;;2.58;0.63;;;15.30;71.70;;;;;;5057351;28;20021;-62
2023/09/23 00:35:10;;;;;;;1.33;0.80;;;15.30;71.70;;;;;;5066327;28;20059;-62
2023/09/23 00:37:36;;;;;;;3.58;0.90;;;15.30;71.70;;;;;;5071191;28;20475;-61
2023/09/23 00:40:03;;;;;;;1.88;0.70;;;15.30;71.60;;;;;;5066091;28;20021;-61
2023/09/23 00:42:29;;;;;;;1.10;0.70;;;15.30;71.40;;;;;;5061994;28;20024;-61
2023/09/23 00:44:57;;;;;;;3.90;0.70;;;15.30;71.10;;;;;;5057970;28;20029;-61
2023/09/23 00:47:23;;;;;;;1.23;0.60;;;15.30;70.90;;;;;;5060979;28;20021;-61
2023/09/23 00:49:49;;;;;;;0.98;0.60;;;15.30;70.90;;;;;;5062463;28;20107;-62
2023/09/23 00:52:16;;;;;;;4.00;0.70;;;15.30;70.70;;;;;;5069147;28;20071;-61
2023/09/23 00:54:43;;;;;;;0.65;0.60;;;15.30;70.50;;;;;;5064558;28;20029;-62
2023/09/23 00:57:09;;;;;;;0.77;0.50;;;15.30;70.40;;;;;;5055610;28;20033;-61
2023/09/23 00:59:35;;;;;;;2.13;0.68;;;15.30;70.50;;;;;;5063246;28;20364;-61
2023/09/23 01:02:05;;;;;;;0.88;0.60;;;15.30;70.60;;;;;;5068517;28;20452;-62
2023/09/23 01:04:31;;;;;;;0.65;0.63;;;15.30;70.50;;;;;;5065791;28;20041;-62
2023/09/23 01:06:59;;;;;;;1.05;0.60;;;15.30;70.40;;;;;;5071945;28;20020;-62
2023/09/23 01:09:25;;;;;;;1.30;0.50;;;15.30;70.40;;;;;;5071565;28;20043;-62
2023/09/23 01:11:52;;;;;;;0.88;0.60;;;15.30;70.60;;;;;;5063223;28;20049;-62
2023/09/23 01:14:21;;;;;;;0.60;0.50;;;15.30;70.60;;;;;;5071400;28;20030;-61
2023/09/23 01:16:53;;;;;;;0.50;0.50;;;15.30;70.70;;;;;;5061973;28;20167;-61
2023/09/23 01:19:22;;;;;;;3.50;0.63;;;15.30;70.80;;;;;;5063525;28;20054;-61
2023/09/23 01:21:50;;;;;;;3.05;0.70;;;15.30;70.90;;;;;;5062685;28;20028;-61
2023/09/23 01:24:17;;;;;;;2.05;0.65;;;15.20;70.80;;;;;;5072366;28;20029;-61
2023/09/23 01:26:51;;;;;;;2.00;0.63;;;15.20;70.80;;;;;;5078126;28;20437;-61
2023/09/23 01:29:22;;;;;;;0.88;0.60;;;15.20;70.60;;;;;;5061566;28;20032;-61
2023/09/23 01:32:03;;;;;;;1.38;0.63;;;15.20;70.40;;;;;;5069915;28;20028;-64
2023/09/23 01:34:29;;;;;;;1.77;0.75;;;15.20;70.40;;;;;;5071084;28;20023;-62
2023/09/23 01:36:55;;;;;;;1.40;0.80;;;15.20;70.30;;;;;;5067545;28;20021;-60
2023/09/23 01:39:23;;;;;;;1.00;0.75;;;15.20;70.20;;;;;;5066173;28;20048;-62
2023/09/23 01:41:49;;;;;;;3.03;0.70;;;15.20;69.90;;;;;;5063822;28;20379;-60
2023/09/23 01:44:16;;;;;;;1.55;0.63;;;15.10;69.80;;;;;;5067717;28;20029;-61
2023/09/23 01:46:42;;;;;;;1.02;0.60;;;15.10;69.60;;;;;;5012641;28;20509;-61
2023/09/23 01:49:08;;;;;;;3.30;0.60;;;15.10;70.10;;;;;;5055159;28;20175;-60
2023/09/23 01:51:34;;;;;;;0.90;0.70;;;15.00;69.20;;;;;;5065218;28;20108;-62
2023/09/23 01:54:00;;;;;;;1.80;0.82;;;15.00;69.20;;;;;;5073393;28;20406;-63
2023/09/23 01:56:26;;;;;;;2.13;0.63;;;15.00;69.30;;;;;;5061048;28;20021;-61
2023/09/23 01:58:51;;;;;;;3.30;0.60;;;15.00;69.30;;;;;;5070858;28;20119;-61
2023/09/23 02:01:17;;;;;;;1.33;0.60;;;14.90;69.10;;;;;;5067157;28;20103;-62
2023/09/23 02:03:43;;;;;;;1.00;0.90;;;14.90;69.10;;;;;;5059117;28;20029;-63
2023/09/23 02:06:09;;;;;;;2.10;0.80;;;14.90;69.00;;;;;;5066061;28;20029;-60
2023/09/23 02:08:35;;;;;;;0.73;0.57;;;14.90;69.00;;;;;;5067094;28;20036;-61
2023/09/23 02:11:02;;;;;;;1.58;0.88;;;14.90;69.10;;;;;;5069823;28;20017;-61
2023/09/23 02:13:28;;;;;;;0.68;0.60;;;14.90;69.10;;;;;;5069457;28;20146;-61
2023/09/23 02:15:55;;;;;;;2.47;0.85;;;14.90;69.00;;;;;;5058607;28;20178;-61
2023/09/23 02:18:21;;;;;;;1.70;0.55;;;14.90;68.80;;;;;;5067679;28;20029;-61
2023/09/23 02:20:47;;;;;;;1.80;0.60;;;14.90;68.80;;;;;;5066578;28;21092;-61
2023/09/23 02:23:14;;;;;;;2.53;0.60;;;14.90;68.80;;;;;;5068410;28;20033;-61
2023/09/23 02:25:40;;;;;;;1.55;0.70;;;14.90;68.60;;;;;;5064102;28;20016;-62
2023/09/23 02:28:05;;;;;;;0.75;0.60;;;14.90;68.40;;;;;;5066980;28;20455;-61
2023/09/23 02:30:32;;;;;;;1.02;0.70;;;14.80;68.10;;;;;;5056631;28;20028;-61
2023/09/23 02:32:58;;;;;;;1.30;0.60;;;14.80;68.00;;;;;;5068752;28;20035;-61
2023/09/23 02:35:25;;;;;;;1.00;0.60;;;14.80;68.00;;;;;;5063937;28;20029;-61
2023/09/23 02:37:53;;;;;;;0.63;0.60;;;14.70;68.00;;;;;;5073648;28;20147;-61
2023/09/23 02:40:20;;;;;;;1.05;0.70;;;14.70;67.90;;;;;;5065263;28;20207;-61
2023/09/23 02:42:47;;;;;;;2.22;0.60;;;14.70;67.80;;;;;;5063185;28;20027;-61
2023/09/23 02:45:16;;;;;;;1.77;0.68;;;14.70;67.70;;;;;;5069525;28;20475;-61
2023/09/23 02:47:43;;;;;;;1.35;0.68;;;14.60;67.50;;;;;;5075807;28;20378;-61
2023/09/23 02:50:10;;;;;;;0.50;0.50;;;14.60;67.50;;;;;;5067735;28;20032;-61
2023/09/23 02:52:38;;;;;;;0.80;0.68;;;14.60;67.70;;;;;;5065589;28;20099;-62
2023/09/23 02:55:07;;;;;;;1.90;0.70;;;14.60;67.60;;;;;;5064829;28;20479;-61
2023/09/23 02:57:36;;;;;;;1.35;0.63;;;14.50;67.50;;;;;;5061863;28;20033;-61
2023/09/23 03:00:13;;;;;;;3.42;0.60;;;14.50;67.50;;;;;;5068851;28;20043;-63
2023/09/23 03:02:39;;;;;;;1.70;0.60;;;14.50;67.40;;;;;;5064519;28;20028;-62
2023/09/23 03:05:09;;;;;;;1.77;0.80;;;14.50;67.60;;;;;;5066313;28;20413;-62
2023/09/23 03:07:35;;;;;;;1.17;0.50;;;14.40;67.50;;;;;;5066394;28;20128;-63
2023/09/23 03:10:03;;;;;;;1.10;0.50;;;14.40;67.60;;;;;;5062862;28;20107;-62
2023/09/23 03:12:40;;;;;;;0.90;0.60;;;14.40;67.70;;;;;;5056378;28;20399;-61
2023/09/23 03:15:14;;;;;;;0.60;0.60;;;14.40;67.70;;;;;;5063316;28;20036;-61
2023/09/23 03:17:50;;;;;;;0.85;0.65;;;14.40;67.70;;;;;;5059431;28;20417;-61
2023/09/23 03:20:21;;;;;;;0.60;0.60;;;14.40;67.70;;;;;;5056065;28;20057;-63
2023/09/23 03:22:49;;;;;;;2.53;0.70;;;14.40;67.70;;;;;;5058182;28;20025;-61
2023/09/23 03:25:20;;;;;;;0.77;0.63;;;14.40;67.70;;;;;;5058031;28;20044;-62
2023/09/23 03:27:51;;;;;;;3.28;0.60;;;14.40;67.60;;;;;;5071056;28;20026;-61
2023/09/23 03:30:17;;;;;;;4.95;0.80;;;14.40;67.70;;;;;;5061394;28;20495;-60
2023/09/23 03:32:44;;;;;;;0.70;0.63;;;14.30;67.70;;;;;;5064311;28;20113;-61
2023/09/23 03:35:13;;;;;;;1.48;0.60;;;14.40;67.80;;;;;;5063061;28;20036;-61
2023/09/23 03:37:39;;;;;;;2.13;0.75;;;14.40;67.80;;;;;;5059188;28;20027;-61
2023/09/23 03:40:07;;;;;;;3.65;0.70;;;14.40;67.70;;;;;;5065723;28;20028;-61
2023/09/23 03:42:33;;;;;;;0.93;0.60;;;14.30;67.70;;;;;;5065662;28;20039;-61
2023/09/23 03:44:59;;;;;;;1.42;0.57;;;14.40;67.80;;;;;;5061556;28;20013;-61
2023/09/23 03:47:25;;;;;;;1.52;0.60;;;14.30;67.70;;;;;;5068063;28;20379;-61
2023/09/23 03:49:51;;;;;;;0.57;0.57;;;14.30;67.70;;;;;;5059059;28;20483;-61
2023/09/23 03:52:17;;;;;;;1.00;0.57;;;14.30;67.90;;;;;;5069957;28;20044;-61
2023/09/23 03:54:42;;;;;;;0.55;0.55;;;14.30;67.80;;;;;;5064758;28;20024;-61
2023/09/23 03:57:08;;;;;;;1.98;0.90;;;14.40;68.00;;;;;;5068106;28;20425;-60
2023/09/23 03:59:36;;;;;;;0.70;0.70;;;14.30;68.00;;;;;;5064154;28;20067;-60
2023/09/23 04:02:01;;;;;;;1.10;0.70;;;14.30;67.90;;;;;;5063175;28;20025;-61
2023/09/23 04:04:27;;;;;;;1.77;0.63;;;14.30;68.00;;;;;;5069871;28;20035;-60
2023/09/23 04:06:52;;;;;;;0.70;0.70;;;14.30;67.90;;;;;;5056101;28;20024;-61
2023/09/23 04:09:18;;;;;;;0.80;0.70;;;14.30;67.80;;;;;;5065738;28;20023;-60
2023/09/23 04:11:46;;;;;;;1.25;0.70;;;14.20;67.90;;;;;;5067434;28;20778;-61
2023/09/23 04:14:12;;;;;;;2.28;0.60;;;14.20;68.00;;;;;;5063494;28;20039;-61
2023/09/23 04:16:37;;;;;;;1.73;0.70;;;14.20;68.10;;;;;;5064419;28;20025;-62
2023/09/23 04:19:03;;;;;;;1.50;0.70;;;14.20;68.20;;;;;;5062278;28;20056;-60
2023/09/23 04:21:30;;;;;;;0.57;0.50;;;14.20;68.30;;;;;;5065901;28;20024;-61
2023/09/23 04:23:57;;;;;;;2.70;0.70;;;14.20;68.30;;;;;;5061799;28;20033;-61
2023/09/23 04:26:24;;;;;;;6.43;0.73;;;14.20;68.30;;;;;;5066962;28;20364;-61
2023/09/23 04:28:52;;;;;;;1.02;0.55;;;14.10;68.10;;;;;;5066971;28;20021;-61
2023/09/23 04:31:18;;;;;;;3.13;0.80;;;14.10;68.20;;;;;;5058684;28;20717;-61
2023/09/23 04:33:44;;;;;;;0.60;0.50;;;14.10;68.40;;;;;;5069373;28;20074;-62
2023/09/23 04:36:11;;;;;;;2.38;0.88;;;14.10;68.50;;;;;;5063548;28;20403;-61
2023/09/23 04:38:37;;;;;;;1.67;0.73;;;14.10;68.50;;;;;;5066121;28;20033;-60
2023/09/23 04:41:02;;;;;;;0.90;0.80;;;14.10;68.40;;;;;;5061716;28;20041;-61
2023/09/23 04:43:30;;;;;;;0.60;0.55;;;14.10;68.30;;;;;;5076305;28;20116;-60
2023/09/23 04:45:57;;;;;;;1.95;0.80;;;14.10;68.40;;;;;;4971433;28;20087;-61
2023/09/23 04:48:26;;;;;;;1.67;0.60;;;14.10;68.50;;;;;;5073783;28;20092;-61
2023/09/23 04:50:55;;;;;;;1.00;0.70;;;14.10;68.40;;;;;;5064799;28;20427;-61
2023/09/23 04:53:21;;;;;;;1.65;0.80;;;14.10;68.60;;;;;;5063467;28;20041;-61
2023/09/23 04:55:47;;;;;;;3.40;0.70;;;14.10;68.40;;;;;;5071589;28;20035;-61
2023/09/23 04:58:13;;;;;;;1.00;0.70;;;14.10;68.30;;;;;;5070383;28;20046;-61
2023/09/23 05:00:39;;;;;;;2.28;0.82;;;14.00;68.10;;;;;;5062582;28;20039;-61
2023/09/23 05:03:05;;;;;;;3.90;0.70;;;14.00;68.30;;;;;;5071416;28;20406;-60
2023/09/23 05:05:31;;;;;;;0.88;0.80;;;14.00;68.40;;;;;;5073226;28;20017;-61
2023/09/23 05:07:59;;;;;;;1.33;0.70;;;14.00;68.50;;;;;;5072587;28;20033;-61
2023/09/23 05:10:26;;;;;;;5.32;0.80;;;14.10;68.60;;;;;;5069710;28;20090;-62
2023/09/23 05:12:56;;;;;;;0.63;0.60;;;14.10;68.60;;;;;;5066831;28;20540;-60
2023/09/23 05:15:25;;;;;;;1.17;0.52;;;14.10;68.60;;;;;;5074707;28;20031;-61
2023/09/23 05:17:54;;;;;;;1.35;0.68;;;14.10;68.50;;;;;;5072104;28;20017;-61
2023/09/23 05:20:21;;;;;;;0.60;0.60;;;14.10;68.60;;;;;;5070674;28;20036;-60
2023/09/23 05:22:48;;;;;;;1.40;0.60;;;14.10;68.60;;;;;;5067309;28;20398;-60
2023/09/23 05:25:14;;;;;;;1.02;0.60;;;14.10;68.60;;;;;;5066682;28;20524;-61
2023/09/23 05:27:40;;;;;;;1.65;0.70;;;14.10;68.70;;;;;;5061264;28;20101;-61
2023/09/23 05:30:10;;;;;;;0.88;0.52;;;14.10;68.70;;;;;;5066139;28;20621;-61
2023/09/23 05:32:39;;;;;;;1.10;0.63;;;14.10;68.60;;;;;;5070221;28;20052;-61
2023/09/23 05:35:10;;;;;;;2.58;0.60;;;14.10;68.60;;;;;;5066046;28;20032;-60
2023/09/23 05:37:36;;;;;;;1.73;0.70;;;14.10;68.60;;;;;;5059103;28;20463;-61
2023/09/23 05:40:18;;;;;;;1.00;0.70;;;14.10;68.60;;;;;;5072388;28;20044;-61
2023/09/23 05:42:45;;;;;;;4.88;1.00;;;14.10;68.60;;;;;;5053986;28;20064;-61
2023/09/23 05:45:11;;;;;;;3.08;0.70;;;14.10;68.60;;;;;;5067661;28;20028;-61
2023/09/23 05:47:37;;;;;;;4.05;0.70;;;14.10;68.60;;;;;;5069980;28;20027;-61
2023/09/23 05:50:04;;;;;;;1.48;0.60;;;14.10;68.60;;;;;;5066311;28;20033;-62
2023/09/23 05:52:30;;;;;;;1.80;0.70;;;14.10;68.60;;;;;;5067029;28;20028;-61
2023/09/23 05:54:56;;;;;;;0.88;0.60;;;14.10;68.70;;;;;;5058746;28;20031;-61
2023/09/23 05:57:22;;;;;;;2.92;0.60;;;14.10;68.80;;;;;;5076169;28;20016;-62
2023/09/23 05:59:47;;;;;;;2.05;0.75;;;14.10;68.80;;;;;;5064382;28;21268;-61
2023/09/23 06:02:13;;;;;;;3.25;0.70;;;14.10;68.80;;;;;;5067229;28;21413;-60
2023/09/23 06:04:40;;;;;;;2.47;0.80;;;14.10;69.00;;;;;;5054620;28;20689;-61
2023/09/23 06:07:06;;;;;;;2.00;0.70;;;14.10;69.10;;;;;;5062307;28;20035;-61
2023/09/23 06:09:32;;;;;;;1.17;0.90;;;14.10;69.10;;;;;;5065728;28;20107;-60
2023/09/23 06:11:58;;;;;;;2.53;0.88;;;14.10;68.90;;;;;;5066779;28;20130;-60
2023/09/23 06:14:25;;;;;;;0.65;0.60;;;14.20;68.90;;;;;;5067318;28;20075;-61
2023/09/23 06:16:50;;;;;;;2.90;0.70;;;14.20;68.80;;;;;;5064252;28;20020;-61
2023/09/23 06:19:16;;;;;;;1.27;0.60;;;14.20;68.70;;;;;;5059822;28;20051;-61
2023/09/23 06:21:42;;;;;;;1.10;0.60;;;14.20;68.70;;;;;;5072857;28;20048;-61
2023/09/23 06:24:10;;;;;;;3.40;0.55;;;14.30;68.60;;;;;;5054454;28;20041;-61
2023/09/23 06:26:37;;;;;;;0.50;0.50;;;14.30;68.60;;;;;;5050084;28;20562;-61
2023/09/23 06:29:04;;;;;;;1.63;0.63;;;14.30;68.60;;;;;;5045550;28;20031;-61
2023/09/23 06:31:30;;;;;;;1.00;0.60;;;14.40;68.90;;;;;;5045205;28;20121;-61
2023/09/23 06:33:56;;;;;;;1.48;0.60;;;14.50;68.80;;;;;;5051408;28;20105;-61
2023/09/23 06:36:22;;;;;;;0.75;0.47;;;14.50;68.70;;;;;;5060871;28;20071;-61
2023/09/23 06:38:48;;;;;;;2.55;0.80;;;14.50;68.60;;;;;;5052096;28;20748;-61
2023/09/23 06:41:14;;;;;;;3.53;0.75;;;14.60;68.70;;;;;;5067369;28;20082;-60
2023/09/23 06:43:40;;;;;;;3.70;0.80;;;14.60;68.70;;;;;;5060114;28;20447;-60
2023/09/23 06:46:06;;;;;;;0.60;0.60;;;14.70;68.80;;;;;;4972613;28;20060;-60
2023/09/23 06:48:32;;;;;;;1.73;0.60;;;14.80;68.90;;;;;;5056208;28;20029;-62
2023/09/23 06:51:03;;;;;;;0.98;0.65;;;14.80;68.70;;;;;;5052482;28;20036;-60
2023/09/23 06:53:31;;;;;;;2.03;0.85;;;14.90;68.40;;;;;;5046590;28;21897;-61
2023/09/23 06:55:57;;;;;;;1.17;0.80;;;14.90;68.20;;;;;;5058658;28;20029;-61
2023/09/23 06:58:23;;;;;;;2.17;0.57;;;15.00;68.10;;;;;;5063649;28;20039;-61
2023/09/23 07:00:48;;;;;;;0.60;0.55;;;15.10;68.00;;;;;;5060555;28;20394;-61
2023/09/23 07:03:14;;;;;;;1.23;0.68;;;15.10;68.00;;;;;;5059063;28;20345;-61
2023/09/23 07:05:41;;;;;;;4.22;0.80;;;15.20;67.80;;;;;;5057253;28;20364;-61
2023/09/23 07:08:07;;;;;;;1.42;0.70;;;15.30;67.60;;;;;;5062061;28;20053;-61
2023/09/23 07:10:35;;;;;;;1.98;0.70;;;15.30;67.40;;;;;;5057921;28;20528;-60
2023/09/23 07:13:03;;;;;;;0.90;0.50;;;15.40;67.30;;;;;;5047471;28;20052;-61
2023/09/23 07:15:40;;;;;;;1.60;0.60;;;15.50;67.10;;;;;;5047846;28;20059;-60
2023/09/23 07:18:06;;;;;;;1.02;0.52;;;15.60;66.80;;;;;;5068208;28;20030;-60
2023/09/23 07:20:33;;;;;;;0.57;0.50;;;15.70;66.60;;;;;;5063403;28;20127;-61
2023/09/23 07:22:59;;;;;;;1.83;0.63;;;15.70;66.30;;;;;;5057603;28;20055;-61
2023/09/23 07:25:26;;;;;;;1.58;0.52;;;15.80;66.10;;;;;;5064461;28;20027;-61
2023/09/23 07:27:53;;;;;;;1.05;0.70;;;15.90;66.00;;;;;;5058460;28;20423;-62
2023/09/23 07:30:18;;;;;;;2.08;0.80;;;15.90;65.90;;;;;;5053521;28;20033;-60
2023/09/23 07:32:44;;;;;;;1.77;0.80;;;16.00;65.90;;;;;;5057111;28;20032;-60
2023/09/23 07:35:10;;;;;;;0.70;0.60;;;16.10;65.80;;;;;;5058751;28;20033;-61
2023/09/23 07:37:35;;;;;;;0.50;0.50;;;16.20;65.90;;;;;;5065118;28;20034;-61
2023/09/23 07:40:01;;;;;;;5.65;0.93;;;16.30;65.80;;;;;;5061910;28;20044;-61
2023/09/23 07:42:27;;;;;;;1.33;0.70;;;16.40;65.40;;;;;;5059408;28;20387;-61
2023/09/23 07:44:53;;;;;;;4.85;0.75;;;16.50;65.00;;;;;;5065547;28;20028;-62
2023/09/23 07:47:18;;;;;;;0.60;0.60;;;16.60;64.70;;;;;;5064684;28;20773;-61
2023/09/23 07:49:44;;;;;;;3.55;0.70;;;16.60;64.50;;;;;;5062884;28;20087;-61
2023/09/23 07:52:12;;;;;;;1.20;0.73;;;16.70;64.10;;;;;;5063486;28;20086;-61
2023/09/23 07:54:38;;;;;;;1.70;0.60;;;16.80;63.60;;;;;;5067987;28;20077;-60
2023/09/23 07:57:04;;;;;;;1.73;0.80;;;16.90;63.70;;;;;;5063730;28;20033;-60
2023/09/23 07:59:30;;;;;;;1.50;0.90;;;17.00;63.80;;;;;;5067153;28;20064;-60
2023/09/23 08:01:56;;;;;;;2.65;0.90;;;17.10;63.60;;;;;;5067109;28;20391;-61
2023/09/23 08:04:21;;;;;;;1.15;0.70;;;17.20;63.10;;;;;;5065319;28;20032;-62
2023/09/23 08:06:47;;;;;;;1.55;0.63;;;17.30;62.70;;;;;;5067528;28;20039;-61
2023/09/23 08:09:14;;;;;;;0.65;0.45;;;17.40;62.10;;;;;;5067207;28;20035;-60
2023/09/23 08:11:39;;;;;;;3.13;0.80;;;17.40;61.40;;;;;;5060683;28;20021;-61
2023/09/23 08:14:05;;;;;;;1.40;0.70;;;17.50;60.90;;;;;;5070094;28;20021;-60
2023/09/23 08:16:31;;;;;;;1.83;1.00;;;17.50;60.90;;;;;;5060060;28;20075;-60
2023/09/23 08:18:56;;;;;;;3.25;0.80;;;17.50;60.70;;;;;;5061503;28;20039;-60
2023/09/23 08:21:22;;;;;;;2.60;0.93;;;17.50;60.30;;;;;;5073552;28;20095;-61
2023/09/23 08:23:48;;;;;;;2.40;0.90;;;17.50;59.90;;;;;;5060215;28;20055;-59
2023/09/23 08:26:13;;;;;;;1.85;1.10;;;17.50;59.90;;;;;;5061860;28;20027;-61
2023/09/23 08:28:39;;;;;;;1.05;0.52;;;17.50;59.70;;;;;;5058490;28;20021;-61
2023/09/23 08:31:05;;;;;;;1.15;0.80;;;17.50;60.10;;;;;;5059503;28;20021;-60
2023/09/23 08:33:32;;;;;;;3.75;0.70;;;17.50;59.80;;;;;;5062142;28;20068;-60
2023/09/23 08:35:58;;;;;;;3.03;0.95;;;17.60;60.00;;;;;;5066246;28;20051;-60
2023/09/23 08:38:24;;;;;;;5.35;0.95;;;17.60;60.10;;;;;;5062572;28;20036;-60
2023/09/23 08:40:52;;;;;;;1.77;0.60;;;17.70;59.60;;;;;;5057531;28;20029;-60
2023/09/23 08:43:36;;;;;;;3.75;0.80;;;17.80;59.50;;;;;;5055400;28;20793;-60
2023/09/23 08:46:11;;;;;;;0.90;0.70;;;17.80;58.90;;;;;;4973894;28;20059;-60
2023/09/23 08:48:38;;;;;;;3.10;0.95;;;17.90;58.70;;;;;;5060158;28;20025;-60
2023/09/23 08:51:06;;;;;;;1.65;0.80;;;17.90;58.70;;;;;;5063539;28;20094;-61
2023/09/23 08:53:33;;;;;;;2.75;0.98;;;17.90;58.30;;;;;;5058801;28;20487;-60
2023/09/23 08:56:04;;;;;;;3.20;0.82;;;17.90;58.50;;;;;;5067416;28;20036;-60
2023/09/23 08:58:30;;;;;;;1.75;0.73;;;17.90;58.10;;;;;;5058687;28;20032;-60
2023/09/23 09:00:56;;;;;;;1.77;0.77;;;18.00;58.40;;;;;;5068631;28;20035;-61
2023/09/23 09:03:22;;;;;;;1.67;0.65;;;18.00;58.60;;;;;;5067885;28;20025;-61
2023/09/23 09:05:48;;;;;;;5.00;1.02;;;18.10;58.90;;;;;;5054961;28;20028;-60
2023/09/23 09:08:14;;;;;;;1.83;0.75;;;18.20;59.00;;;;;;5045588;28;20029;-61
2023/09/23 09:10:41;;;;;;;2.58;0.90;;;18.30;58.60;;;;;;5060889;28;20017;-61
2023/09/23 09:13:07;;;;;;;1.63;0.82;;;18.50;58.30;;;;;;5064307;28;20484;-60
2023/09/23 09:15:37;;;;;;;1.77;0.80;;;18.50;57.60;;;;;;5056023;28;20372;-60
2023/09/23 09:18:03;;;;;;;3.40;1.05;;;18.60;57.00;;;;;;5060351;28;20017;-61
2023/09/23 09:20:29;;;;;;;3.03;0.70;;;18.60;57.20;;;;;;5064603;28;20060;-61
2023/09/23 09:22:55;;;;;;;3.58;0.82;;;18.60;57.30;;;;;;5054231;28;20558;-61
2023/09/23 09:25:21;;;;;;;1.42;0.70;;;18.70;57.30;;;;;;5066830;28;20513;-60
2023/09/23 09:27:51;;;;;;;2.78;1.00;;;18.70;57.40;;;;;;5067202;28;20020;-60
2023/09/23 09:30:19;;;;;;;4.90;0.80;;;18.70;56.90;;;;;;5070683;28;20054;-60
2023/09/23 09:32:46;;;;;;;16.65;1.17;;;18.70;56.90;;;;;;5068634;28;20081;-60
2023/09/23 09:35:19;;;;;;;5.18;0.90;;;18.80;56.80;;;;;;5062418;28;20089;-60
2023/09/23 09:37:47;;;;;;;4.70;1.17;;;18.80;56.70;;;;;;5074492;28;20058;-61
2023/09/23 09:40:21;;;;;;;1.73;0.77;;;18.90;56.90;;;;;;5064393;28;20036;-59
2023/09/23 09:42:54;;;;;;;;;;;18.90;56.10;;;;;;5063887;28;20024;-62
2023/09/23 09:45:23;;;;;;;2.95;1.00;;;19.00;57.00;;;;;;5056912;28;19919;-61
2023/09/23 09:47:51;;;;;;;0.85;0.60;;;18.90;56.50;;;;;;5060684;28;20028;-61
2023/09/23 09:50:18;;;;;;;2.05;1.55;;;18.90;56.00;;;;;;5063461;28;20483;-60
2023/09/23 09:52:44;;;;;;;1.65;0.88;;;18.80;55.70;;;;;;5073341;28;20031;-61
2023/09/23 09:55:17;;;;;;;1.92;0.82;;;18.80;55.80;;;;;;5070464;28;20399;-61
2023/09/23 09:57:43;;;;;;;1.60;0.85;;;18.70;56.20;;;;;;5053741;28;20025;-61
2023/09/23 10:00:22;;;;;;;3.53;0.90;;;18.70;55.80;;;;;;5060683;28;20061;-61
2023/09/23 10:02:48;;;;;;;6.28;4.53;;;18.60;56.00;;;;;;5064679;28;20028;-61
2023/09/23 10:05:18;;;;;;;2.15;1.50;;;18.70;56.50;;;;;;5057474;28;20021;-61
2023/09/23 10:07:57;;;;;;;3.00;1.20;;;18.70;56.20;;;;;;5062717;28;20047;-60
2023/09/23 10:10:35;;;;;;;3.45;1.60;;;18.80;55.40;;;;;;5063523;28;20020;-61
2023/09/23 10:13:08;;;;;;;2.38;0.90;;;18.90;54.70;;;;;;5069425;28;20120;-60
2023/09/23 10:15:37;;;;;;;1.20;0.70;;;19.00;55.20;;;;;;5067460;28;20449;-61
2023/09/23 10:18:09;;;;;;;1.75;0.70;;;19.00;54.60;;;;;;5063050;28;20031;-61
2023/09/23 10:20:46;;;;;;;1.38;0.60;;;19.00;54.50;;;;;;5062473;28;20060;-62
2023/09/23 10:23:16;;;;;;;1.30;0.70;;;19.00;54.20;;;;;;5059743;28;20418;-61
2023/09/23 10:25:43;;;;;;;19.52;9.38;;;19.00;54.20;;;;;;5062702;28;20025;-61
2023/09/23 10:28:22;;;;;;;4.10;2.35;;;18.90;54.40;;;;;;5063966;28;20033;-60
2023/09/23 10:31:06;;;;;;;3.45;1.20;;;19.00;53.60;;;;;;5056526;28;20023;-59
2023/09/23 10:33:36;;;;;;;2.25;0.93;;;19.10;54.30;;;;;;5060185;28;20109;-60
2023/09/23 10:36:06;;;;;;;2.70;0.95;;;19.30;54.40;;;;;;5062981;28;20374;-61
2023/09/23 10:38:38;;;;;;;1.70;0.70;;;19.40;53.60;;;;;;5069765;28;20036;-60
2023/09/23 10:41:04;;;;;;;1.75;0.70;;;19.40;52.00;;;;;;5070765;28;20032;-61
2023/09/23 10:43:31;;;;;;;1.70;1.00;;;19.50;52.20;;;;;;5068795;28;20024;-60
2023/09/23 10:45:58;;;;;;;2.58;0.70;;;19.50;52.50;;;;;;4980541;28;20036;-60
2023/09/23 10:48:25;;;;;;;3.53;0.90;;;19.60;52.50;;;;;;5066667;28;20059;-61
2023/09/23 10:50:52;;;;;;;5.40;1.10;;;19.60;52.30;;;;;;5070554;28;20023;-61
2023/09/23 10:53:25;;;;;;;2.75;0.80;;;19.70;52.60;;;;;;5065561;28;20024;-62
2023/09/23 10:55:51;;;;;;;1.50;0.85;;;19.80;52.60;;;;;;5065913;28;20025;-61
2023/09/23 10:58:17;;;;;;;1.73;0.70;;;19.90;51.60;;;;;;5060381;28;20032;-61
2023/09/23 11:00:43;;;;;;;2.60;0.70;;;19.90;51.00;;;;;;5059245;28;20024;-63
2023/09/23 11:03:11;;;;;;;3.30;0.95;;;19.80;50.20;;;;;;5066005;28;20036;-61
2023/09/23 11:05:37;;;;;;;3.10;0.80;;;19.70;50.20;;;;;;5056304;28;20071;-61
2023/09/23 11:08:10;;;;;;;2.03;0.75;;;19.70;50.80;;;;;;5055008;28;20421;-61
2023/09/23 11:10:38;;;;;;;3.17;0.73;;;19.60;49.90;;;;;;5060738;28;20030;-61
2023/09/23 11:13:05;;;;;;;1.33;0.82;;;19.70;50.30;;;;;;5064738;28;20052;-61
2023/09/23 11:15:31;;;;;;;2.67;0.90;;;19.70;50.30;;;;;;5060228;28;20020;-61
2023/09/23 11:17:57;;;;;;;5.28;0.90;;;19.70;49.40;;;;;;5064586;28;20032;-61
2023/09/23 11:20:30;;;;;;;3.45;0.80;;;19.60;49.70;;;;;;5065812;28;20040;-60
2023/09/23 11:23:05;;;;;;;3.93;1.13;;;19.60;48.60;;;;;;5063435;28;20021;-60
2023/09/23 11:25:34;;;;;;;2.08;0.90;;;19.50;49.30;;;;;;5058361;28;20479;-61
2023/09/23 11:28:00;;;;;;;2.85;0.98;;;19.50;49.70;;;;;;5069692;28;20032;-62
2023/09/23 11:30:26;;;;;;;2.92;0.98;;;19.50;49.60;;;;;;5062026;28;20035;-61
2023/09/23 11:32:53;;;;;;;2.65;1.23;;;19.50;50.00;;;;;;5060540;28;20593;-60
2023/09/23 11:35:20;;;;;;;1.83;0.85;;;19.50;50.80;;;;;;5060319;28;20371;-61
2023/09/23 11:37:47;;;;;;;2.83;0.80;;;19.50;50.30;;;;;;5063948;28;20043;-61
2023/09/23 11:40:14;;;;;;;2.90;1.08;;;19.60;50.00;;;;;;5055997;28;20068;-60
2023/09/23 11:42:40;;;;;;;1.23;0.55;;;19.70;49.80;;;;;;5051492;28;20028;-61
2023/09/23 11:45:07;;;;;;;10.13;5.18;;;19.70;49.90;;;;;;5041719;28;20403;-61
2023/09/23 11:47:33;;;;;;;6.38;1.60;;;19.80;50.60;;;;;;5045165;28;20336;-61
2023/09/23 11:49:59;;;;;;;2.17;1.15;;;19.90;50.60;;;;;;5048624;28;20035;-62
2023/09/23 11:52:25;;;;;;;2.78;1.08;;;20.00;50.20;;;;;;5049829;28;20043;-61
2023/09/23 11:54:50;;;;;;;1.83;0.93;;;20.00;49.70;;;;;;5053067;28;20027;-61
2023/09/23 11:57:16;;;;;;;2.05;0.65;;;20.00;48.80;;;;;;5047802;28;20418;-60
2023/09/23 11:59:42;;;;;;;1.80;0.95;;;20.00;48.70;;;;;;5066935;28;20530;-61
2023/09/23 12:02:08;;;;;;;2.75;1.35;;;20.00;49.10;;;;;;5057705;28;20024;-60
2023/09/23 12:04:34;;;;;;;3.58;1.52;;;20.00;48.80;;;;;;5061907;28;20031;-61
2023/09/23 12:07:00;;;;;;;2.60;1.00;;;20.00;49.60;;;;;;5056693;28;20025;-60
2023/09/23 12:09:27;;;;;;;2.28;0.80;;;20.00;49.60;;;;;;5068390;28;20107;-60
2023/09/23 12:11:53;;;;;;;4.15;0.95;;;20.00;48.50;;;;;;5066489;28;20139;-62
2023/09/23 12:14:19;;;;;;;2.17;1.10;;;20.00;48.40;;;;;;5058988;28;20114;-61
2023/09/23 12:16:45;;;;;;;1.98;0.80;;;20.00;48.40;;;;;;5063049;28;20032;-61
2023/09/23 12:19:11;;;;;;;3.45;0.70;;;19.90;48.60;;;;;;5064530;28;20063;-61
2023/09/23 12:21:37;;;;;;;1.77;0.85;;;19.90;48.70;;;;;;5057028;28;20059;-62
2023/09/23 12:24:03;;;;;;;2.03;0.80;;;19.90;48.70;;;;;;5061692;28;20155;-62
2023/09/23 12:26:31;;;;;;;1.33;0.80;;;19.90;49.10;;;;;;5061730;28;20116;-61
2023/09/23 12:28:57;;;;;;;1.80;0.80;;;19.90;48.80;;;;;;5058253;28;20031;-61
2023/09/23 12:31:24;;;;;;;1.25;0.70;;;20.00;48.50;;;;;;5088145;28;20033;-61
2023/09/23 12:33:53;;;;;;;1.40;0.80;;;20.10;49.20;;;;;;5061619;28;20081;-61
2023/09/23 12:36:19;;;;;;;2.35;0.80;;;20.30;49.30;;;;;;5072960;28;20485;-61
2023/09/23 12:38:44;;;;;;;1.88;0.80;;;20.50;49.40;;;;;;5065348;28;20119;-61
2023/09/23 12:41:10;;;;;;;4.97;1.02;;;20.70;48.10;;;;;;5071312;28;20036;-61
2023/09/23 12:43:35;;;;;;;1.80;0.63;;;20.80;47.40;;;;;;5063411;28;20029;-63
2023/09/23 12:46:01;;;;;;;3.53;0.80;;;20.90;47.00;;;;;;5068033;28;20085;-62
2023/09/23 12:48:27;;;;;;;1.77;0.90;;;20.90;46.90;;;;;;5070149;28;20502;-62